Latest Weather Observations for Avalon

IDV60901

Issued at 9:01 am EST Wednesday 18 September 2019 (issued every 10 minutes, with the page automatically refreshed every 10 minutes)

About weather observations | Map of Melbourne area stations | Latest observations for Melbourne area | Other Formats
Station Details ID: 087113 Name: AVALON AIRPORT Lat: -38.03 Lon: 144.48 Height: 10.6 m
Data from the previous 72 hours. | See also: Recent months at Avalon
Date/Time
EST
Temp
°C
App
Temp
°C
Dew
Point
°C
Rel
Hum
%
Delta-T
°C
Wind Press
QNH
hPa
Press
MSL
hPa
Rain since
9am
mm
Dir  Spd
km/h
Gust
km/h
Spd
kts
Gust
kts
18/09:00am 10.0 9.4 7.6 85 1.1 CALM 0 0 0 0 1028.5 1028.5 0.0
18/08:30am 8.3 6.7 7.9 97 0.2 NW 6 9 3 5 1028.6 1028.6 0.0
18/08:00am 6.0 4.3 5.9 99 0.0 WNW 4 7 2 4 1028.6 1028.6 0.0
18/07:30am 3.9 1.4 3.8 99 0.0 NW 6 7 3 4 1028.4 1028.4 0.0
18/07:00am 2.9 -0.3 2.8 99 0.0 WNW 9 11 5 6 1028.3 1028.3 0.0
18/06:30am 1.6 -1.5 1.5 99 0.0 WNW 7 9 4 5 1028.0 1028.0 0.0
18/06:00am 2.2 -0.8 2.1 99 0.0 WNW 7 9 4 5 1027.7 1027.7 0.0
18/05:30am 2.4 -0.6 2.3 99 0.0 WNW 7 9 4 5 1027.8 1027.8 0.0
18/05:00am 2.7 -0.6 2.6 99 0.0 NW 9 11 5 6 1027.9 1027.9 0.0
18/04:30am 2.0 -1.8 1.9 99 0.0 WNW 11 11 6 6 1027.8 1027.8 0.0
18/04:00am 3.1 -0.1 3.0 99 0.0 WNW 9 9 5 5 1027.8 1027.8 0.0
18/03:30am 3.4 0.2 3.1 98 0.1 WNW 9 9 5 5 1027.9 1027.9 0.0
18/03:00am 3.5 0.3 2.9 96 0.2 WNW 9 11 5 6 1028.0 1028.0 0.0
18/02:30am 4.0 0.8 3.3 95 0.3 WNW 9 11 5 6 1028.3 1028.3 0.0
18/02:00am 4.0 0.8 3.3 95 0.3 WNW 9 11 5 6 1028.7 1028.7 0.0
18/01:30am 4.7 1.2 3.7 93 0.4 WNW 11 13 6 7 1028.9 1028.9 0.0
18/01:00am 4.9 1.8 3.4 90 0.6 WNW 9 11 5 6 1029.0 1029.0 0.0
18/12:30am 5.1 2.0 3.6 90 0.6 WNW 9 11 5 6 1029.2 1029.2 0.0
18/12:00am 5.8 3.2 4.3 90 0.6 WNW 7 9 4 5 1029.4 1029.4 0.0
 
Date/Time
EST
Temp
°C
App
Temp
°C
Dew
Point
°C
Rel
Hum
%
Delta-T
°C
Wind Press
QNH
hPa
Press
MSL
hPa
Rain since
9am
mm
Dir  Spd
km/h
Gust
km/h
Spd
kts
Gust
kts
17/11:30pm 6.1 3.6 4.9 92 0.5 NW 7 9 4 5 1029.7 1029.7 0.0
17/11:00pm 5.6 3.1 4.6 93 0.4 NW 7 9 4 5 1029.8 1029.8 0.0
17/10:30pm 4.3 2.9 3.7 96 0.2 CALM 0 0 0 0 1029.9 1029.9 0.0
17/10:00pm 4.8 2.0 2.3 84 1.0 SSW 6 7 3 4 1029.8 1029.8 0.0
17/09:30pm 6.1 3.0 3.8 85 1.0 SSE 9 11 5 6 1029.8 1029.8 0.0
17/09:00pm 6.2 2.8 4.0 86 0.9 SSE 11 13 6 7 1029.7 1029.7 0.0
17/08:30pm 5.9 2.0 3.4 84 1.0 S 13 15 7 8 1029.6 1029.6 0.0
17/08:00pm 6.0 1.7 3.5 84 1.0 S 15 15 8 8 1029.5 1029.5 0.0
17/07:30pm 6.1 2.2 3.3 82 1.2 S 13 15 7 8 1029.1 1029.1 0.0
17/07:00pm 6.9 2.6 3.3 78 1.5 S 15 17 8 9 1028.8 1028.8 0.0
17/06:30pm 8.1 3.5 3.6 73 1.9 S 17 20 9 11 1028.6 1028.6 0.0
17/06:00pm 9.1 3.9 3.5 68 2.4 S 20 24 11 13 1028.3 1028.3 0.0
17/05:30pm 10.2 4.6 3.7 64 2.9 SSE 22 28 12 15 1028.3 1028.3 0.0
17/05:00pm 11.1 5.1 3.6 60 3.3 S 24 30 13 16 1028.2 1028.2 0.0
17/04:30pm 11.8 5.9 3.8 58 3.6 S 24 28 13 15 1027.9 1027.9 0.0
17/04:00pm 12.1 6.5 3.6 56 3.8 S 22 28 12 15 1027.8 1027.8 0.0
17/03:30pm 12.6 7.6 3.6 54 4.0 SSE 19 24 10 13 1027.6 1027.6 0.0
17/03:00pm 12.3 7.5 2.7 52 4.2 SSE 17 26 9 14 1027.8 1027.8 0.0
17/02:30pm 12.6 7.9 3.3 53 4.1 SE 17 24 9 13 1027.8 1027.8 0.0
17/02:00pm 12.5 7.4 2.9 52 4.2 SSE 19 26 10 14 1028.0 1028.0 0.0
17/01:30pm 12.8 8.1 2.9 51 4.4 SSE 17 26 9 14 1028.2 1028.2 0.0
17/01:00pm 12.7 7.9 2.6 50 4.4 SSE 17 26 9 14 1028.5 1028.5 0.0
17/12:30pm 12.2 7.6 1.5 48 4.5 SSE 15 26 8 14 1028.8 1028.8 0.0
17/12:00pm 12.6 7.9 3.0 52 4.2 SE 17 24 9 13 1028.8 1028.8 0.0
17/11:30am 12.2 7.0 2.6 52 4.2 SE 19 26 10 14 1028.9 1028.9 0.0
17/11:00am 12.4 7.7 3.1 53 4.1 SE 17 26 9 14 1029.1 1029.1 0.0
17/10:30am 11.9 7.0 2.1 51 4.2 SSE 17 24 9 13 1029.2 1029.2 0.0
17/10:00am 11.7 5.9 2.2 52 4.0 SE 22 30 12 16 1029.0 1029.0 0.0
17/09:30am 10.8 5.5 2.9 58 3.4 SSE 20 26 11 14 1028.9 1028.9 0.0
17/09:00am 10.7 5.3 2.5 57 3.5 SSE 20 26 11 14 1028.9 1028.9 0.4
17/08:30am 10.1 5.2 4.0 66 2.7 SE 19 30 10 16 1028.6 1028.6 0.4
17/08:00am 6.6 4.5 6.5 99 0.0 WNW 7 9 4 5 1028.4 1028.4 0.4
17/07:30am 4.2 1.6 4.1 99 0.0 WNW 7 9 4 5 1028.3 1028.3 0.4
17/07:00am 3.4 0.2 3.3 99 0.0 WNW 9 11 5 6 1028.0 1028.0 0.4
17/06:30am 3.0 -0.6 2.7 98 0.1 NW 11 13 6 7 1027.8 1027.8 0.4
17/06:00am 2.8 -0.6 1.9 94 0.3 NNW 9 11 5 6 1027.4 1027.4 0.2
17/05:30am 3.2 0.3 1.7 90 0.6 W 6 13 3 7 1027.3 1027.3 0.2
17/05:00am 5.3 1.3 2.7 83 1.1 SE 13 15 7 8 1027.0 1027.0 0.2
17/04:30am 5.4 1.4 3.1 85 0.9 SSE 13 17 7 9 1026.8 1026.8 0.2
17/04:00am 6.6 3.2 4.1 84 1.1 SE 11 15 6 8 1026.7 1026.7 0.2
17/03:30am 6.3 2.6 4.6 89 0.7 SSE 13 20 7 11 1026.6 1026.6 0.2
17/03:00am 4.1 1.2 2.6 90 0.6 WNW 7 11 4 6 1026.6 1026.6 0.2
17/02:30am 5.7 1.8 3.2 84 1.0 S 13 17 7 9 1026.8 1026.8 0.2
17/02:00am 5.9 1.2 3.4 84 1.0 S 17 22 9 12 1026.7 1026.7 0.2
17/01:30am 3.2 0.4 2.3 94 0.4 W 6 9 3 5 1026.7 1026.7 0.2
17/01:00am 3.9 0.6 2.7 92 0.5 W 9 11 5 6 1027.1 1027.1 0.2
17/12:30am 4.0 0.7 2.7 91 0.5 W 9 13 5 7 1027.2 1027.2 0.2
17/12:00am 4.7 1.4 2.6 86 0.8 SSW 9 11 5 6 1027.1 1027.1 0.2
 
Date/Time
EST
Temp
°C
App
Temp
°C
Dew
Point
°C
Rel
Hum
%
Delta-T
°C
Wind Press
QNH
hPa
Press
MSL
hPa
Rain since
9am
mm
Dir  Spd
km/h
Gust
km/h
Spd
kts
Gust
kts
16/11:30pm 3.7 0.3 1.6 86 0.8 WNW 9 11 5 6 1027.0 1027.0 0.2
16/11:00pm 4.8 1.2 3.0 88 0.7 WNW 11 15 6 8 1026.9 1026.9 0.2
16/10:30pm 4.7 1.5 2.9 88 0.7 NW 9 13 5 7 1026.9 1026.9 0.2
16/10:00pm 5.5 1.9 3.2 85 0.9 WSW 11 17 6 9 1026.9 1026.9 0.2
16/09:30pm 4.7 1.3 2.1 83 1.0 WSW 9 15 5 8 1026.7 1026.7 0.2
16/09:00pm 5.5 1.4 2.5 81 1.2 S 13 13 7 7 1026.5 1026.5 0.2
16/08:30pm 7.4 2.5 1.9 68 2.3 S 17 20 9 11 1026.3 1026.3 0.2
16/08:00pm 6.1 1.8 3.4 83 1.1 SSE 15 20 8 11 1026.2 1026.2 0.2
16/07:30pm 7.0 2.3 3.4 78 1.5 S 17 20 9 11 1025.9 1025.9 0.2
16/07:00pm 7.0 2.6 2.7 74 1.8 S 15 19 8 10 1025.5 1025.5 0.2
16/06:30pm 8.2 1.7 2.4 67 2.4 S 26 33 14 18 1025.2 1025.2 0.2
16/06:00pm 8.9 2.3 2.3 63 2.8 SSW 26 33 14 18 1024.6 1024.6 0.2
16/05:30pm 9.4 2.9 2.5 62 2.9 SSW 26 33 14 18 1024.2 1024.2 0.2
16/05:00pm 9.8 2.0 1.9 58 3.3 SSW 32 41 17 22 1023.8 1023.8 0.2
16/04:30pm 9.8 1.3 3.1 63 2.9 SSW 37 44 20 24 1023.6 1023.6 0.2
16/04:00pm 10.7 2.8 1.3 52 3.9 SSW 32 39 17 21 1023.2 1023.2 0.2
16/03:30pm 11.3 4.4 2.6 55 3.8 SSW 28 37 15 20 1023.0 1023.0 0.2
16/03:00pm 11.0 3.0 0.4 48 4.3 SSW 32 39 17 21 1022.8 1022.8 0.2
16/02:30pm 11.5 4.1 4.0 60 3.3 SSW 32 41 17 22 1022.7 1022.7 0.2
16/02:00pm 10.4 3.0 4.8 68 2.5 SSW 33 52 18 28 1022.4 1022.4 0.2
16/01:50pm 11.8 4.5 4.5 61 3.3 SSW 32 54 17 29 1022.2 1022.2 0.2
16/01:30pm 11.9 3.8 1.3 48 4.5 SSW 33 44 18 24 1022.1 1022.1 0.0
16/01:00pm 12.0 4.2 3.0 54 3.9 S 33 48 18 26 1021.9 1021.9 0.0
16/12:30pm 12.1 4.8 4.3 59 3.5 S 32 39 17 21 1021.7 1021.7 0.0
16/12:00pm 12.3 5.3 5.9 65 3.0 SSW 32 41 17 22 1021.7 1021.7 0.0
16/11:30am 11.9 4.2 5.5 65 3.0 SSW 35 48 19 26 1021.6 1021.6 0.0
16/11:00am 12.4 5.3 3.4 54 4.0 SSW 30 39 16 21 1021.3 1021.3 0.0
16/10:30am 12.5 5.4 5.7 63 3.2 SSW 32 41 17 22 1021.3 1021.3 0.0
16/10:00am 11.1 3.9 4.8 65 2.8 SSW 32 41 17 22 1021.0 1021.0 0.0
16/09:30am 11.5 6.8 6.2 70 2.5 SW 20 30 11 16 1021.0 1021.0 0.0
16/09:00am 9.8 6.6 6.9 82 1.4 WSW 13 17 7 9 1020.9 1020.9 8.2
16/08:30am 10.1 6.2 7.3 83 1.3 WSW 17 20 9 11 1020.4 1020.4 8.2
16/08:00am 9.5 6.9 9.4 99 0.0 W 13 15 7 8 1020.1 1020.1 8.2
16/07:30am 8.2 4.9 8.2 100 0.0 W 15 17 8 9 1019.9 1019.9 8.2
16/07:00am 7.1 4.0 7.1 100 0.0 W 13 17 7 9 1019.6 1019.6 8.2
16/06:30am 6.8 3.6 6.7 99 0.0 W 13 15 7 8 1019.1 1019.1 8.2
16/06:00am 7.7 4.7 7.6 99 0.0 W 13 15 7 8 1018.6 1018.6 8.2
16/05:30am 8.3 5.4 8.2 99 0.0 W 13 15 7 8 1018.2 1018.2 8.2
16/05:00am 9.3 5.3 9.2 99 0.0 WNW 20 26 11 14 1017.9 1017.9 8.2
16/04:30am 9.2 6.2 9.1 99 0.0 W 15 17 8 9 1017.5 1017.5 8.2
16/04:00am 9.2 5.8 9.1 99 0.0 W 17 20 9 11 1017.3 1017.3 8.2
16/03:30am 10.0 6.2 9.9 99 0.1 WNW 20 26 11 14 1017.3 1017.3 8.2
16/03:00am 10.1 6.4 10.0 99 0.1 WNW 20 26 11 14 1017.0 1017.0 8.2
16/02:30am 10.2 7.0 10.1 99 0.1 W 17 20 9 11 1016.9 1016.9 8.2
16/02:00am 10.2 7.1 10.2 100 0.0 W 17 22 9 12 1017.0 1017.0 8.2
16/01:30am 10.0 6.3 10.0 100 0.0 W 20 24 11 13 1016.7 1016.7 8.2
16/01:10am 10.0 6.3 10.0 100 0.0 WNW 20 32 11 17 1016.6 1016.6 8.2
16/01:00am 10.0 6.4 10.0 100 0.0 WNW 19 24 10 13 1017.1 1017.1 7.6
16/12:53am 10.0 6.8 9.9 99 0.1 W 17 20 9 11 1017.0 1017.0 7.6
16/12:43am 10.0 6.4 9.9 99 0.1 W 19 26 10 14 1016.7 1016.7 7.4
16/12:39am 10.0 6.4 9.9 99 0.1 WNW 19 26 10 14 1016.5 1016.5 7.2
16/12:30am 10.2 6.7 10.1 99 0.1 W 19 24 10 13 1016.7 1016.7 6.4
16/12:06am 10.6 6.0 9.8 95 0.4 W 24 39 13 21 1016.4 1016.4 6.0
16/12:00am 10.6 5.7 10.0 96 0.3 W 26 39 14 21 1016.3 1016.3 6.0
 
Date/Time
EST
Temp
°C
App
Temp
°C
Dew
Point
°C
Rel
Hum
%
Delta-T
°C
Wind Press
QNH
hPa
Press
MSL
hPa
Rain since
9am
mm
Dir  Spd
km/h
Gust
km/h
Spd
kts
Gust
kts
15/11:30pm 11.4 6.5 11.2 99 0.1 SW 28 35 15 19 1016.0 1016.0 6.0
15/11:12pm 12.9 8.4 12.7 99 0.1 W 28 37 15 20 1015.4 1015.4 5.6
15/11:04pm 13.6 10.5 13.4 99 0.1 WNW 22 37 12 20 1014.9 1014.9 5.6
15/11:00pm 13.8 11.7 13.6 99 0.1 WNW 17 30 9 16 1014.9 1014.9 5.6
15/10:55pm 13.8 11.7 13.6 99 0.1 WNW 17 20 9 11 1015.2 1015.2 5.2
15/10:30pm 14.0 12.2 13.2 95 0.4 WNW 15 19 8 10 1014.3 1014.3 4.4
15/10:00pm 14.2 11.6 13.1 93 0.6 NW 19 24 10 13 1014.5 1014.5 4.4
15/09:30pm 14.5 11.5 12.7 89 1.0 WNW 20 32 11 17 1015.3 1015.3 4.2
15/09:00pm 14.7 11.9 12.6 87 1.1 NW 19 26 10 14 1014.5 1014.5 3.8
15/08:30pm 14.8 12.1 12.8 88 1.1 NW 19 22 10 12 1014.7 1014.7 3.8
15/08:00pm 14.6 11.8 13.1 91 0.8 NNW 20 30 11 16 1014.5 1014.5 3.8
15/07:30pm 14.6 12.7 14.1 97 0.3 NNW 17 24 9 13 1015.4 1015.4 3.0
15/07:00pm 15.0 11.6 13.7 92 0.7 NW 24 33 13 18 1015.6 1015.6 2.2
15/06:35pm 15.3 9.5 13.8 91 0.8 WNW 37 52 20 28 1016.4 1016.4 2.0
15/06:30pm 15.8 10.3 13.5 86 1.3 WNW 35 52 19 28 1016.3 1016.3 2.0
15/06:29pm 15.8 10.6 13.5 86 1.3 WNW 33 52 18 28 1016.3 1016.3 2.0
15/06:27pm 15.9 11.3 13.6 86 1.3 WNW 30 46 16 25 1016.3 1016.3 1.6
15/06:17pm 16.0 13.3 13.5 85 1.4 WNW 20 28 11 15 1016.4 1016.4 1.4
15/06:00pm 17.0 14.6 12.5 75 2.5 NW 17 20 9 11 1015.4 1015.4 0.6
15/05:30pm 17.0 14.6 12.7 76 2.4 NW 17 24 9 13 1014.8 1014.8 0.6
15/05:00pm 16.7 14.5 13.2 80 2.0 NNW 17 26 9 14 1014.0 1014.0 0.6
15/04:30pm 16.7 14.4 13.0 79 2.1 NNW 17 24 9 13 1014.4 1014.4 0.6
15/04:00pm 17.5 14.1 12.6 73 2.7 NW 22 28 12 15 1015.1 1015.1 0.2
15/03:30pm 17.5 12.4 12.0 70 3.0 NW 30 41 16 22 1015.1 1015.1 0.2
15/03:00pm 20.7 17.0 10.2 51 5.7 NW 20 35 11 19 1013.8 1013.8 0.0
15/02:30pm 20.9 16.3 9.8 49 6.0 NNW 24 33 13 18 1013.9 1013.9 0.0
15/02:00pm 21.0 16.4 9.6 48 6.1 NW 24 32 13 17 1013.9 1013.9 0.0
15/01:30pm 19.6 14.9 9.2 51 5.5 NW 24 35 13 19 1014.6 1014.6 0.0
15/01:00pm 19.3 15.9 11.1 59 4.5 W 20 28 11 15 1015.7 1015.7 0.0
15/12:30pm 19.4 18.4 10.9 58 4.6 WSW 7 13 4 7 1015.0 1015.0 0.0
15/12:00pm 19.0 17.3 12.3 65 3.7 SW 13 15 7 8 1015.8 1015.8 0.0
15/11:30am 19.5 18.4 12.0 62 4.2 W 9 24 5 13 1015.8 1015.8 0.0
15/11:00am 17.9 17.9 11.2 65 3.6 NNE 2 7 1 4 1015.9 1015.9 0.0
15/10:30am 18.8 16.3 9.8 56 4.8 ENE 13 15 7 8 1016.1 1016.1 0.0
15/10:00am 18.7 15.3 10.5 59 4.4 NNE 19 24 10 13 1016.2 1016.2 0.0
15/09:30am 18.7 15.2 10.8 60 4.3 NNE 20 28 11 15 1016.5 1016.5 0.0

Latest Capital City Observations: Canberra | Sydney | Melbourne | Brisbane | Adelaide | Perth | Hobart | Darwin

Other formats

Comma delimited format used in spreadsheet applications
http://www.bom.gov.au/fwo/IDV60901/IDV60901.94854.axf

JavaScript Object Notation format (JSON) in row-major order
http://www.bom.gov.au/fwo/IDV60901/IDV60901.94854.json

Data quality

Most of these data are generated automatically and are frequently updated. Quality checks on data are not normally performed. It is possible for incorrect values to appear. Refer to information at About Latest Weather Observations and please check the disclaimer before using these data.